SHT20B EGJB-EGLL
Flight info
| Callsign | SHT20B |
|---|---|
| Flight time | 0h 36m |
| Altitude | 21000 |
| Route | ORIST1F ORIST L982 ROXOG ROXOG1H |
| Aircraft | A319/M-SDE3FGIJ1KRWXY/LB1 |
Departure
| Time | 2026-04-20 12:45 |
|---|---|
| Airport | Guernsey Airport (EGJB) |
Arrival
| Time | 2026-04-20 13:22 |
|---|---|
| Airport | London Heathrow Airport (EGLL) |
| Time | Latitude | Longitude | Altitude | Speed | Heading |
|---|---|---|---|---|---|
| 2026-04-20 12:11 | 49.43253 | -2.59620 | 328 ft | 0 kts | 178° |
| 2026-04-20 12:35 | 49.43266 | -2.59621 | 328 ft | 4 kts | 178° |
| 2026-04-20 12:36 | 49.43293 | -2.59622 | 329 ft | 4 kts | 178° |
| 2026-04-20 12:36 | 49.43315 | -2.59623 | 328 ft | 4 kts | 178° |
| 2026-04-20 12:36 | 49.43340 | -2.59624 | 325 ft | 4 kts | 188° |
| 2026-04-20 12:36 | 49.43359 | -2.59609 | 325 ft | 4 kts | 249° |
| 2026-04-20 12:37 | 49.43363 | -2.59569 | 328 ft | 4 kts | 268° |
| 2026-04-20 12:37 | 49.43364 | -2.59559 | 327 ft | 0 kts | 267° |
| 2026-04-20 12:41 | 49.43363 | -2.59587 | 329 ft | 8 kts | 267° |
| 2026-04-20 12:41 | 49.43358 | -2.59706 | 329 ft | 13 kts | 262° |
| 2026-04-20 12:41 | 49.43345 | -2.59838 | 325 ft | 15 kts | 267° |
| 2026-04-20 12:41 | 49.43341 | -2.60011 | 313 ft | 16 kts | 267° |
| 2026-04-20 12:42 | 49.43335 | -2.60196 | 300 ft | 16 kts | 267° |
| 2026-04-20 12:42 | 49.43328 | -2.60385 | 293 ft | 17 kts | 266° |
| 2026-04-20 12:42 | 49.43325 | -2.60564 | 296 ft | 14 kts | 270° |
| 2026-04-20 12:42 | 49.43337 | -2.60703 | 297 ft | 13 kts | 279° |
| 2026-04-20 12:43 | 49.43354 | -2.60833 | 304 ft | 11 kts | 281° |
| 2026-04-20 12:43 | 49.43365 | -2.60949 | 309 ft | 13 kts | 271° |
| 2026-04-20 12:43 | 49.43362 | -2.61091 | 311 ft | 13 kts | 266° |
| 2026-04-20 12:43 | 49.43358 | -2.61208 | 313 ft | 11 kts | 269° |
| 2026-04-20 12:44 | 49.43393 | -2.61312 | 315 ft | 11 kts | 311° |
| 2026-04-20 12:44 | 49.43456 | -2.61355 | 316 ft | 8 kts | 23° |
| 2026-04-20 12:44 | 49.43468 | -2.61308 | 316 ft | 0 kts | 88° |
| 2026-04-20 12:45 | 49.43474 | -2.61033 | 312 ft | 72 kts | 88° |
| 2026-04-20 12:45 | 49.43508 | -2.59855 | 499 ft | 128 kts | 86° |
| 2026-04-20 12:45 | 49.43533 | -2.58477 | 1353 ft | 132 kts | 86° |
| 2026-04-20 12:45 | 49.43570 | -2.57075 | 2148 ft | 131 kts | 86° |
| 2026-04-20 12:46 | 49.43613 | -2.55588 | 2596 ft | 150 kts | 87° |
| 2026-04-20 12:46 | 49.43661 | -2.53858 | 3015 ft | 174 kts | 87° |
| 2026-04-20 12:46 | 49.43718 | -2.51882 | 3507 ft | 195 kts | 87° |
| 2026-04-20 12:46 | 49.44068 | -2.49819 | 3944 ft | 206 kts | 59° |
| 2026-04-20 12:47 | 49.45200 | -2.48503 | 4092 ft | 215 kts | 21° |
| 2026-04-20 12:47 | 49.46673 | -2.47992 | 5011 ft | 218 kts | 16° |
| 2026-04-20 12:47 | 49.48155 | -2.47456 | 5950 ft | 223 kts | 16° |
| 2026-04-20 12:47 | 49.49748 | -2.46850 | 6518 ft | 248 kts | 16° |
| 2026-04-20 12:48 | 49.51497 | -2.46174 | 7178 ft | 267 kts | 14° |
| 2026-04-20 12:48 | 49.53323 | -2.45469 | 8121 ft | 273 kts | 14° |
| 2026-04-20 12:48 | 49.55181 | -2.44751 | 9156 ft | 277 kts | 14° |
| 2026-04-20 12:48 | 49.57058 | -2.44030 | 10175 ft | 281 kts | 13° |
| 2026-04-20 12:49 | 49.58976 | -2.43302 | 11103 ft | 285 kts | 13° |
| 2026-04-20 12:49 | 49.60920 | -2.42563 | 12014 ft | 289 kts | 11° |
| 2026-04-20 12:49 | 49.62880 | -2.41818 | 12896 ft | 294 kts | 12° |
| 2026-04-20 12:49 | 49.64895 | -2.41053 | 13778 ft | 299 kts | 11° |
| 2026-04-20 12:50 | 49.66930 | -2.40277 | 14600 ft | 303 kts | 10° |
| 2026-04-20 12:50 | 49.68951 | -2.39282 | 15391 ft | 310 kts | 21° |
| 2026-04-20 12:50 | 49.70835 | -2.37554 | 16054 ft | 324 kts | 33° |
| 2026-04-20 12:50 | 49.72502 | -2.35021 | 16254 ft | 352 kts | 46° |
| 2026-04-20 12:51 | 49.74117 | -2.32064 | 16694 ft | 364 kts | 46° |
| 2026-04-20 12:51 | 49.75761 | -2.29038 | 17354 ft | 370 kts | 47° |
| 2026-04-20 12:51 | 49.77427 | -2.25968 | 18077 ft | 374 kts | 46° |
| 2026-04-20 12:51 | 49.79095 | -2.22905 | 18732 ft | 379 kts | 46° |
| 2026-04-20 12:52 | 49.80814 | -2.19766 | 19309 ft | 385 kts | 46° |
| 2026-04-20 12:52 | 49.82557 | -2.16588 | 19901 ft | 390 kts | 45° |
| 2026-04-20 12:52 | 49.84320 | -2.13364 | 20494 ft | 395 kts | 45° |
| 2026-04-20 12:52 | 49.86112 | -2.10089 | 21038 ft | 401 kts | 44° |
| 2026-04-20 12:53 | 49.87922 | -2.06784 | 21215 ft | 403 kts | 44° |
| 2026-04-20 12:53 | 49.89733 | -2.03464 | 21253 ft | 403 kts | 44° |
| 2026-04-20 12:53 | 49.91542 | -2.00135 | 21254 ft | 403 kts | 45° |
| 2026-04-20 12:53 | 49.93342 | -1.96814 | 21253 ft | 403 kts | 45° |
| 2026-04-20 12:54 | 49.95146 | -1.93489 | 21253 ft | 402 kts | 45° |
| 2026-04-20 12:54 | 49.96947 | -1.90165 | 21259 ft | 402 kts | 44° |
| 2026-04-20 12:54 | 49.98777 | -1.86907 | 21257 ft | 398 kts | 40° |
| 2026-04-20 12:54 | 50.00861 | -1.84133 | 21258 ft | 391 kts | 29° |
| 2026-04-20 12:55 | 50.03176 | -1.81992 | 21272 ft | 385 kts | 20° |
| 2026-04-20 12:55 | 50.05569 | -1.80132 | 21264 ft | 384 kts | 20° |
| 2026-04-20 12:55 | 50.07954 | -1.78259 | 21263 ft | 384 kts | 20° |
| 2026-04-20 12:55 | 50.10341 | -1.76370 | 21263 ft | 385 kts | 20° |
| 2026-04-20 12:56 | 50.12668 | -1.74279 | 21260 ft | 390 kts | 29° |
| 2026-04-20 12:56 | 50.14799 | -1.71617 | 21266 ft | 394 kts | 34° |
| 2026-04-20 12:56 | 50.16906 | -1.68869 | 21267 ft | 394 kts | 34° |
| 2026-04-20 12:56 | 50.19015 | -1.66129 | 21288 ft | 394 kts | 33° |
| 2026-04-20 12:57 | 50.21121 | -1.63391 | 21286 ft | 394 kts | 34° |
| 2026-04-20 12:57 | 50.23229 | -1.60646 | 21284 ft | 394 kts | 33° |
| 2026-04-20 12:57 | 50.25369 | -1.57991 | 21281 ft | 390 kts | 28° |
| 2026-04-20 12:57 | 50.27702 | -1.55916 | 21280 ft | 383 kts | 18° |
| 2026-04-20 12:58 | 50.30178 | -1.54499 | 21275 ft | 377 kts | 11° |
| 2026-04-20 12:58 | 50.32682 | -1.53290 | 21281 ft | 377 kts | 11° |
| 2026-04-20 12:58 | 50.35191 | -1.52070 | 21279 ft | 377 kts | 11° |
| 2026-04-20 12:58 | 50.37693 | -1.50846 | 21278 ft | 377 kts | 11° |
| 2026-04-20 12:59 | 50.40195 | -1.49622 | 21277 ft | 377 kts | 11° |
| 2026-04-20 12:59 | 50.42698 | -1.48389 | 21296 ft | 377 kts | 11° |
| 2026-04-20 12:59 | 50.45197 | -1.47148 | 21299 ft | 376 kts | 11° |
| 2026-04-20 12:59 | 50.47693 | -1.45907 | 21294 ft | 376 kts | 11° |
| 2026-04-20 13:00 | 50.50186 | -1.44671 | 21291 ft | 375 kts | 11° |
| 2026-04-20 13:00 | 50.52678 | -1.43440 | 21288 ft | 376 kts | 12° |
| 2026-04-20 13:00 | 50.55098 | -1.41799 | 21286 ft | 383 kts | 21° |
| 2026-04-20 13:00 | 50.56649 | -1.40476 | 21285 ft | 383 kts | 22° |
| 2026-04-20 13:01 | 50.58991 | -1.38462 | 21303 ft | 383 kts | 21° |
| 2026-04-20 13:01 | 50.61320 | -1.36452 | 21224 ft | 380 kts | 21° |
| 2026-04-20 13:01 | 50.63616 | -1.34461 | 20958 ft | 373 kts | 21° |
| 2026-04-20 13:01 | 50.65878 | -1.32505 | 20721 ft | 369 kts | 21° |
| 2026-04-20 13:02 | 50.68120 | -1.30578 | 20479 ft | 366 kts | 21° |
| 2026-04-20 13:02 | 50.70353 | -1.28657 | 20227 ft | 364 kts | 21° |
| 2026-04-20 13:02 | 50.72572 | -1.26744 | 19975 ft | 363 kts | 22° |
| 2026-04-20 13:02 | 50.74775 | -1.24842 | 19667 ft | 358 kts | 22° |
| 2026-04-20 13:03 | 50.76914 | -1.22958 | 19213 ft | 355 kts | 24° |
| 2026-04-20 13:03 | 50.79048 | -1.20894 | 18705 ft | 354 kts | 26° |
| 2026-04-20 13:03 | 50.81106 | -1.18769 | 18160 ft | 352 kts | 27° |
| 2026-04-20 13:03 | 50.83131 | -1.16621 | 17663 ft | 348 kts | 28° |
| 2026-04-20 13:04 | 50.85127 | -1.14491 | 17168 ft | 344 kts | 28° |
| 2026-04-20 13:04 | 50.87101 | -1.12400 | 16668 ft | 340 kts | 28° |
| 2026-04-20 13:04 | 50.89063 | -1.10342 | 16187 ft | 337 kts | 28° |
| 2026-04-20 13:04 | 50.90985 | -1.08339 | 15695 ft | 334 kts | 28° |
| 2026-04-20 13:05 | 50.92947 | -1.06302 | 15203 ft | 331 kts | 29° |
| 2026-04-20 13:05 | 50.94842 | -1.04336 | 14721 ft | 329 kts | 29° |
| 2026-04-20 13:05 | 50.96753 | -1.02353 | 14239 ft | 327 kts | 30° |
| 2026-04-20 13:05 | 50.98651 | -1.00385 | 13720 ft | 325 kts | 30° |
| 2026-04-20 13:06 | 51.00507 | -0.98281 | 13207 ft | 324 kts | 38° |
| 2026-04-20 13:06 | 51.02059 | -0.95741 | 12856 ft | 328 kts | 45° |
| 2026-04-20 13:06 | 51.03580 | -0.93040 | 12487 ft | 327 kts | 45° |
| 2026-04-20 13:06 | 51.05087 | -0.90360 | 12102 ft | 324 kts | 45° |
| 2026-04-20 13:07 | 51.06583 | -0.87701 | 11723 ft | 322 kts | 45° |
| 2026-04-20 13:07 | 51.08069 | -0.85055 | 11367 ft | 319 kts | 46° |
| 2026-04-20 13:07 | 51.09539 | -0.82434 | 11000 ft | 317 kts | 45° |
| 2026-04-20 13:07 | 51.11001 | -0.79822 | 10641 ft | 314 kts | 45° |
| 2026-04-20 13:08 | 51.12422 | -0.77279 | 10486 ft | 301 kts | 45° |
| 2026-04-20 13:08 | 51.13781 | -0.74837 | 10324 ft | 288 kts | 46° |
| 2026-04-20 13:08 | 51.15089 | -0.72489 | 10131 ft | 281 kts | 45° |
| 2026-04-20 13:08 | 51.16400 | -0.70139 | 9987 ft | 280 kts | 46° |
| 2026-04-20 13:09 | 51.17687 | -0.67832 | 9725 ft | 277 kts | 46° |
| 2026-04-20 13:09 | 51.18965 | -0.65538 | 9381 ft | 276 kts | 46° |
| 2026-04-20 13:09 | 51.20233 | -0.63259 | 9042 ft | 274 kts | 46° |
| 2026-04-20 13:09 | 51.21488 | -0.61003 | 8710 ft | 271 kts | 47° |
| 2026-04-20 13:10 | 51.22716 | -0.58791 | 8380 ft | 269 kts | 47° |
| 2026-04-20 13:10 | 51.23966 | -0.56534 | 8052 ft | 267 kts | 47° |
| 2026-04-20 13:10 | 51.25174 | -0.54359 | 7732 ft | 264 kts | 47° |
| 2026-04-20 13:10 | 51.26376 | -0.52151 | 7398 ft | 263 kts | 49° |
| 2026-04-20 13:11 | 51.27560 | -0.49962 | 7268 ft | 259 kts | 49° |
| 2026-04-20 13:11 | 51.28836 | -0.47957 | 7275 ft | 259 kts | 33° |
| 2026-04-20 13:11 | 51.30565 | -0.47036 | 7271 ft | 263 kts | 5° |
| 2026-04-20 13:11 | 51.32340 | -0.47569 | 7272 ft | 269 kts | 337° |
| 2026-04-20 13:12 | 51.33771 | -0.49439 | 7251 ft | 259 kts | 307° |
| 2026-04-20 13:12 | 51.34403 | -0.52052 | 7272 ft | 253 kts | 281° |
| 2026-04-20 13:12 | 51.34595 | -0.54841 | 7278 ft | 251 kts | 276° |
| 2026-04-20 13:12 | 51.34736 | -0.57575 | 7272 ft | 250 kts | 275° |
| 2026-04-20 13:13 | 51.34881 | -0.60327 | 7119 ft | 247 kts | 276° |
| 2026-04-20 13:13 | 51.35020 | -0.63069 | 6779 ft | 249 kts | 276° |
| 2026-04-20 13:13 | 51.35155 | -0.65830 | 6497 ft | 247 kts | 276° |
| 2026-04-20 13:13 | 51.35297 | -0.68562 | 6186 ft | 246 kts | 276° |
| 2026-04-20 13:14 | 51.35436 | -0.71284 | 5899 ft | 245 kts | 276° |
| 2026-04-20 13:14 | 51.35571 | -0.73999 | 5594 ft | 244 kts | 276° |
| 2026-04-20 13:14 | 51.35713 | -0.76714 | 5233 ft | 245 kts | 278° |
| 2026-04-20 13:14 | 51.36311 | -0.79196 | 4872 ft | 238 kts | 312° |
| 2026-04-20 13:15 | 51.37590 | -0.80719 | 4557 ft | 226 kts | 345° |
| 2026-04-20 13:15 | 51.39099 | -0.81101 | 4381 ft | 216 kts | 359° |
| 2026-04-20 13:15 | 51.40589 | -0.81249 | 4117 ft | 213 kts | 0° |
| 2026-04-20 13:15 | 51.42060 | -0.81373 | 3864 ft | 210 kts | 1° |
| 2026-04-20 13:16 | 51.43493 | -0.81495 | 3702 ft | 203 kts | 1° |
| 2026-04-20 13:16 | 51.44831 | -0.81071 | 3448 ft | 195 kts | 33° |
| 2026-04-20 13:16 | 51.45719 | -0.79562 | 3301 ft | 182 kts | 57° |
| 2026-04-20 13:16 | 51.46354 | -0.77869 | 3158 ft | 173 kts | 61° |
| 2026-04-20 13:17 | 51.46951 | -0.76197 | 3080 ft | 173 kts | 61° |
| 2026-04-20 13:17 | 51.47506 | -0.74486 | 2997 ft | 172 kts | 73° |
| 2026-04-20 13:17 | 51.47622 | -0.72589 | 3071 ft | 172 kts | 88° |
| 2026-04-20 13:17 | 51.47634 | -0.70688 | 2869 ft | 168 kts | 87° |
| 2026-04-20 13:18 | 51.47646 | -0.68850 | 2617 ft | 161 kts | 88° |
| 2026-04-20 13:18 | 51.47656 | -0.67123 | 2422 ft | 153 kts | 88° |
| 2026-04-20 13:18 | 51.47666 | -0.65385 | 2220 ft | 153 kts | 88° |
| 2026-04-20 13:18 | 51.47676 | -0.63688 | 2013 ft | 152 kts | 88° |
| 2026-04-20 13:19 | 51.47685 | -0.62000 | 1795 ft | 151 kts | 87° |
| 2026-04-20 13:19 | 51.47693 | -0.60344 | 1585 ft | 147 kts | 87° |
| 2026-04-20 13:19 | 51.47701 | -0.58683 | 1395 ft | 148 kts | 88° |
| 2026-04-20 13:19 | 51.47710 | -0.57032 | 1197 ft | 147 kts | 88° |
| 2026-04-20 13:20 | 51.47716 | -0.55513 | 988 ft | 128 kts | 87° |
| 2026-04-20 13:20 | 51.47723 | -0.54136 | 824 ft | 122 kts | 87° |
| 2026-04-20 13:20 | 51.47729 | -0.52803 | 644 ft | 120 kts | 87° |
| 2026-04-20 13:20 | 51.47734 | -0.51471 | 446 ft | 120 kts | 88° |
| 2026-04-20 13:21 | 51.47743 | -0.50131 | 350 ft | 120 kts | 87° |
| 2026-04-20 13:21 | 51.47750 | -0.48796 | 184 ft | 119 kts | 89° |
| 2026-04-20 13:21 | 51.47751 | -0.47512 | 87 ft | 104 kts | 89° |
| 2026-04-20 13:21 | 51.47756 | -0.46588 | 90 ft | 50 kts | 89° |
| 2026-04-20 13:22 | 51.47753 | -0.46232 | 89 ft | 19 kts | 107° |
| 2026-04-20 13:22 | 51.47654 | -0.46093 | 89 ft | 15 kts | 146° |
| 2026-04-20 13:22 | 51.47595 | -0.46152 | 89 ft | 14 kts | 269° |
| 2026-04-20 13:22 | 51.47594 | -0.46318 | 86 ft | 14 kts | 269° |
| 2026-04-20 13:23 | 51.47593 | -0.46496 | 86 ft | 18 kts | 270° |
| 2026-04-20 13:23 | 51.47593 | -0.46681 | 86 ft | 17 kts | 270° |
| 2026-04-20 13:23 | 51.47588 | -0.46875 | 86 ft | 16 kts | 259° |
| 2026-04-20 13:23 | 51.47582 | -0.47044 | 87 ft | 15 kts | 270° |
| 2026-04-20 13:24 | 51.47582 | -0.47219 | 88 ft | 17 kts | 270° |
| 2026-04-20 13:24 | 51.47581 | -0.47385 | 90 ft | 15 kts | 270° |
| 2026-04-20 13:24 | 51.47581 | -0.47571 | 86 ft | 18 kts | 270° |
| 2026-04-20 13:24 | 51.47582 | -0.47780 | 86 ft | 18 kts | 270° |
| 2026-04-20 13:25 | 51.47581 | -0.47964 | 89 ft | 14 kts | 270° |
| 2026-04-20 13:25 | 51.47580 | -0.48130 | 88 ft | 16 kts | 268° |
| 2026-04-20 13:25 | 51.47578 | -0.48325 | 86 ft | 19 kts | 268° |
| 2026-04-20 13:25 | 51.47550 | -0.48470 | 86 ft | 14 kts | 203° |
| 2026-04-20 13:26 | 51.47487 | -0.48571 | 88 ft | 17 kts | 271° |
| 2026-04-20 13:26 | 51.47487 | -0.48771 | 89 ft | 17 kts | 269° |
| 2026-04-20 13:26 | 51.47476 | -0.48885 | 89 ft | 8 kts | 191° |
| 2026-04-20 13:26 | 51.47408 | -0.48891 | 86 ft | 7 kts | 178° |
| 2026-04-20 13:27 | 51.47399 | -0.48891 | 86 ft | 0 kts | 179° |